Time;durP1;ratioP1;P1;durP2;ratioP2;P2;SDS_P1;SDS_P2;PMS_P1;PMS_P2;Temp;Humidity;BMP_temperature;BMP_pressure;BME280_temperature;BME280_humidity;BME280_pressure;Samples;Min_cycle;Max_cycle;Signal;HPM_P1;HPM_P2
2021/04/10 00:02:14;;;;;;;3.95;3.28;;;7.30;98.60;;;;;;5031633;28;20089;-74
2021/04/10 00:04:40;;;;;;;4.38;2.25;;;7.40;98.90;;;;;;5034489;28;20082;-73
2021/04/10 00:07:05;;;;;;;4.78;2.20;;;7.40;97.90;;;;;;5034323;28;20104;-74
2021/04/10 00:09:31;;;;;;;7.20;2.45;;;7.40;97.80;;;;;;5033804;28;20089;-74
2021/04/10 00:11:57;;;;;;;5.65;2.38;;;7.60;97.90;;;;;;5033614;28;20093;-74
2021/04/10 00:14:24;;;;;;;5.75;2.25;;;7.70;97.50;;;;;;5041524;28;20139;-75
2021/04/10 00:16:50;;;;;;;4.43;2.38;;;7.70;97.40;;;;;;5046767;28;20484;-75
2021/04/10 00:19:15;;;;;;;4.05;2.30;;;7.80;97.00;;;;;;5039222;28;20062;-74
2021/04/10 00:21:41;;;;;;;5.05;2.20;;;7.70;97.60;;;;;;5012646;28;22064;-75
2021/04/10 00:24:09;;;;;;;4.53;2.40;;;7.60;98.00;;;;;;5032915;28;20147;-75
2021/04/10 00:26:34;;;;;;;2.90;2.28;;;7.20;99.10;;;;;;5034065;28;20074;-73
2021/04/10 00:29:00;;;;;;;4.93;2.10;;;7.10;99.90;;;;;;5054052;28;20077;-75
2021/04/10 00:31:26;;;;;;;5.82;2.65;;;7.00;99.90;;;;;;5031574;28;20094;-74
2021/04/10 00:33:51;;;;;;;3.33;1.80;;;6.70;99.90;;;;;;5031116;28;20102;-75
2021/04/10 00:36:17;;;;;;;6.05;2.00;;;6.80;99.90;;;;;;5027837;28;20089;-75
2021/04/10 00:38:42;;;;;;;4.35;2.10;;;6.90;99.90;;;;;;5032851;28;20451;-74
2021/04/10 00:41:09;;;;;;;4.57;2.10;;;6.50;99.90;;;;;;5031318;28;20093;-74
2021/04/10 00:43:35;;;;;;;4.57;2.20;;;6.80;99.90;;;;;;5033563;28;20074;-74
2021/04/10 00:46:01;;;;;;;3.80;2.17;;;6.90;99.90;;;;;;5049054;28;20076;-74
2021/04/10 00:48:26;;;;;;;6.63;2.42;;;6.50;99.90;;;;;;5046405;28;20533;-75
2021/04/10 00:50:53;;;;;;;5.65;2.10;;;6.40;99.90;;;;;;5040589;28;20102;-74
2021/04/10 00:53:21;;;;;;;4.57;1.73;;;6.40;99.90;;;;;;5030799;28;20093;-75
2021/04/10 00:55:48;;;;;;;5.03;1.88;;;6.40;99.90;;;;;;5045072;28;21016;-74
2021/04/10 00:58:13;;;;;;;3.28;1.83;;;6.50;99.90;;;;;;5054286;28;20083;-73
2021/04/10 01:00:40;;;;;;;6.60;2.70;;;6.30;99.90;;;;;;5039622;28;20105;-74
2021/04/10 01:03:05;;;;;;;4.05;1.90;;;6.20;99.90;;;;;;5030555;28;20127;-73
2021/04/10 01:05:31;;;;;;;2.60;1.85;;;6.20;99.90;;;;;;5030620;28;20078;-74
2021/04/10 01:07:57;;;;;;;6.38;3.03;;;6.30;99.90;;;;;;5031128;28;20113;-74
2021/04/10 01:10:23;;;;;;;6.55;1.83;;;6.20;99.90;;;;;;5035704;28;20102;-75
2021/04/10 01:13:06;;;;;;;4.65;2.13;;;6.10;99.90;;;;;;5029106;28;20116;-74
2021/04/10 01:15:40;;;;;;;2.97;1.42;;;5.90;99.90;;;;;;5042101;28;20586;-74
2021/04/10 01:18:13;;;;;;;4.18;1.70;;;5.90;99.90;;;;;;5030410;28;20077;-73
2021/04/10 01:20:50;;;;;;;5.78;2.70;;;5.90;99.90;;;;;;5033694;28;20115;-74
2021/04/10 01:23:42;;;;;;;3.95;1.70;;;5.90;99.90;;;;;;5030090;28;20082;-74
2021/04/10 01:26:19;;;;;;;4.25;2.05;;;5.50;99.90;;;;;;5040064;28;20085;-73
2021/04/10 01:29:10;;;;;;;4.63;2.20;;;5.70;99.90;;;;;;5032226;28;20081;-75
2021/04/10 01:31:44;;;;;;;3.30;1.70;;;5.70;99.90;;;;;;5029408;28;20098;-75
2021/04/10 01:34:18;;;;;;;3.40;1.80;;;5.90;99.90;;;;;;5012121;28;20097;-74
2021/04/10 01:36:45;;;;;;;3.07;2.07;;;5.80;99.90;;;;;;5031183;28;20094;-74
2021/04/10 01:39:12;;;;;;;2.42;2.10;;;5.40;99.90;;;;;;5030404;28;20106;-75
2021/04/10 01:41:43;;;;;;;2.80;1.75;;;5.20;99.90;;;;;;5034223;28;20093;-74
2021/04/10 01:44:10;;;;;;;5.22;2.33;;;5.30;99.90;;;;;;5042833;28;20222;-74
2021/04/10 01:46:36;;;;;;;3.97;1.95;;;5.30;99.90;;;;;;5033584;28;20078;-74
2021/04/10 01:49:03;;;;;;;2.75;1.92;;;5.10;99.90;;;;;;5039490;28;20128;-75
2021/04/10 01:51:30;;;;;;;3.03;2.08;;;4.90;99.90;;;;;;5036061;28;20180;-75
2021/04/10 01:53:56;;;;;;;2.40;1.80;;;4.60;99.90;;;;;;5035309;28;20102;-74
2021/04/10 01:56:23;;;;;;;4.75;1.95;;;4.80;99.90;;;;;;5041748;28;20078;-75
2021/04/10 01:58:49;;;;;;;3.72;2.25;;;4.80;99.90;;;;;;5031345;28;20081;-75
2021/04/10 02:01:16;;;;;;;3.67;2.50;;;4.80;99.90;;;;;;5030314;28;20097;-75
2021/04/10 02:03:46;;;;;;;4.07;1.90;;;5.10;99.90;;;;;;5029444;28;20128;-73
2021/04/10 02:06:13;;;;;;;4.53;2.00;;;4.90;99.90;;;;;;5047120;28;20159;-75
2021/04/10 02:08:42;;;;;;;3.72;2.22;;;4.90;99.90;;;;;;5046363;28;20089;-74
2021/04/10 02:11:10;;;;;;;4.45;1.90;;;5.10;99.90;;;;;;5029754;28;20109;-75
2021/04/10 02:13:36;;;;;;;3.10;2.00;;;5.10;99.90;;;;;;5031611;28;20147;-75
2021/04/10 02:16:03;;;;;;;2.40;2.03;;;5.20;99.90;;;;;;5054463;28;20074;-74
2021/04/10 02:18:30;;;;;;;4.00;1.63;;;5.30;99.90;;;;;;5027785;28;20086;-74
2021/04/10 02:20:58;;;;;;;4.05;2.50;;;5.40;99.90;;;;;;5011903;28;20108;-74
2021/04/10 02:23:24;;;;;;;2.95;2.08;;;5.60;99.90;;;;;;5028870;28;20084;-75
2021/04/10 02:25:50;;;;;;;2.83;1.83;;;5.60;99.90;;;;;;5029250;28;20443;-75
2021/04/10 02:28:15;;;;;;;4.38;2.28;;;5.50;99.90;;;;;;5028590;28;20492;-75
2021/04/10 02:30:41;;;;;;;4.65;1.98;;;5.60;99.90;;;;;;5028959;28;20507;-74
2021/04/10 02:33:38;;;;;;;4.22;2.38;;;5.50;99.90;;;;;;5029366;28;20090;-74
2021/04/10 02:36:04;;;;;;;4.30;2.03;;;5.50;99.90;;;;;;5028483;28;20153;-75
2021/04/10 02:38:32;;;;;;;2.88;1.88;;;5.50;99.90;;;;;;5049988;28;20142;-75
2021/04/10 02:41:14;;;;;;;5.50;1.88;;;5.70;99.90;;;;;;5014283;28;20188;-75
2021/04/10 02:43:45;;;;;;;5.13;1.77;;;5.80;99.90;;;;;;5029000;28;20097;-74
2021/04/10 02:46:13;;;;;;;3.05;1.70;;;5.50;99.90;;;;;;5028239;28;20532;-73
2021/04/10 02:48:46;;;;;;;4.35;1.95;;;5.50;99.90;;;;;;5031201;28;20605;-75
2021/04/10 02:51:14;;;;;;;4.97;1.95;;;5.70;99.90;;;;;;5038277;28;20098;-75
2021/04/10 02:53:42;;;;;;;5.57;1.90;;;5.90;99.90;;;;;;5015836;28;20144;-75
2021/04/10 02:56:10;;;;;;;4.63;2.05;;;5.90;99.90;;;;;;5026859;28;20159;-75
2021/04/10 02:58:39;;;;;;;5.80;2.13;;;6.00;99.90;;;;;;5029162;28;20540;-75
2021/04/10 03:01:05;;;;;;;4.30;2.22;;;6.10;99.90;;;;;;5029422;28;20610;-75
2021/04/10 03:03:33;;;;;;;2.38;2.00;;;6.30;99.90;;;;;;5028294;28;20090;-74
2021/04/10 03:06:02;;;;;;;15.50;2.17;;;6.40;99.90;;;;;;5037158;28;20084;-75
2021/04/10 03:08:28;;;;;;;3.38;2.10;;;6.60;99.90;;;;;;5036614;28;20077;-74
2021/04/10 03:10:54;;;;;;;6.25;2.08;;;6.60;99.90;;;;;;5030126;28;20093;-75
2021/04/10 03:13:21;;;;;;;3.95;1.83;;;6.50;99.90;;;;;;5040822;28;20094;-75
2021/04/10 03:15:51;;;;;;;7.07;2.58;;;6.30;99.90;;;;;;5028888;28;20082;-75
2021/04/10 03:18:17;;;;;;;3.70;1.90;;;6.20;99.90;;;;;;5025593;28;20453;-75
2021/04/10 03:20:44;;;;;;;3.65;1.65;;;6.10;99.90;;;;;;5027800;28;20098;-75
2021/04/10 03:23:10;;;;;;;3.80;2.05;;;6.20;99.90;;;;;;5028884;28;20131;-75
2021/04/10 03:25:36;;;;;;;3.60;1.73;;;6.30;99.90;;;;;;5027796;28;20499;-74
2021/04/10 03:28:03;;;;;;;4.78;1.83;;;6.40;99.90;;;;;;5029462;28;20071;-75
2021/04/10 03:30:29;;;;;;;3.58;1.67;;;6.30;99.90;;;;;;5028757;28;20110;-75
2021/04/10 03:32:55;;;;;;;4.35;1.38;;;6.20;99.90;;;;;;5028828;28;20090;-75
2021/04/10 03:35:26;;;;;;;4.07;2.35;;;6.40;99.90;;;;;;5026724;28;20489;-75
2021/04/10 03:37:54;;;;;;;2.92;1.80;;;6.40;99.90;;;;;;5031004;28;20101;-74
2021/04/10 03:40:20;;;;;;;4.40;1.70;;;6.30;99.90;;;;;;5029101;28;20088;-75
2021/04/10 03:42:45;;;;;;;3.10;1.85;;;6.40;99.90;;;;;;5019898;28;20172;-74
2021/04/10 03:45:13;;;;;;;7.35;2.42;;;6.40;99.90;;;;;;5029213;28;20081;-75
2021/04/10 03:47:39;;;;;;;6.72;2.40;;;6.30;99.90;;;;;;5029399;28;20207;-75
2021/04/10 03:50:06;;;;;;;3.20;2.60;;;6.20;99.90;;;;;;5015380;28;20556;-74
2021/04/10 03:52:32;;;;;;;3.83;1.85;;;6.30;99.90;;;;;;5028541;28;20105;-75
2021/04/10 03:54:58;;;;;;;4.15;1.70;;;6.30;99.90;;;;;;5029108;28;20081;-75
2021/04/10 03:57:23;;;;;;;8.88;2.40;;;6.30;99.90;;;;;;5031650;28;20168;-75
2021/04/10 03:59:49;;;;;;;6.07;1.90;;;6.40;99.90;;;;;;5032750;28;20076;-75
2021/04/10 04:02:15;;;;;;;8.32;1.98;;;6.30;99.90;;;;;;5032645;28;20090;-74
2021/04/10 04:04:40;;;;;;;4.03;2.17;;;6.40;99.90;;;;;;5031735;28;20074;-74
2021/04/10 04:07:06;;;;;;;4.70;1.67;;;6.40;99.90;;;;;;5038958;28;20074;-75
2021/04/10 04:09:31;;;;;;;3.65;1.77;;;6.40;99.90;;;;;;5052524;28;20081;-75
2021/04/10 04:11:57;;;;;;;3.28;2.63;;;6.40;99.90;;;;;;5035059;28;20169;-75
2021/04/10 04:14:23;;;;;;;4.25;2.05;;;6.50;99.90;;;;;;5036489;28;20098;-75
2021/04/10 04:16:49;;;;;;;3.25;1.58;;;6.50;99.90;;;;;;5031588;28;20106;-73
2021/04/10 04:19:15;;;;;;;3.08;1.65;;;6.50;99.90;;;;;;5031136;28;20590;-74
2021/04/10 04:21:41;;;;;;;4.40;1.75;;;6.60;99.90;;;;;;5031735;28;20096;-73
2021/04/10 04:24:07;;;;;;;4.53;2.00;;;6.60;99.90;;;;;;5030315;28;20078;-74
2021/04/10 04:26:33;;;;;;;5.38;1.90;;;6.80;99.90;;;;;;5031127;28;20511;-74
2021/04/10 04:28:58;;;;;;;5.25;2.13;;;6.90;99.90;;;;;;5048624;28;20077;-75
2021/04/10 04:31:24;;;;;;;4.18;1.80;;;6.90;99.90;;;;;;5033203;28;20699;-75
2021/04/10 04:33:50;;;;;;;4.82;2.00;;;6.90;99.90;;;;;;5030852;28;20093;-74
2021/04/10 04:36:15;;;;;;;4.72;2.63;;;6.90;99.90;;;;;;5029951;28;20070;-74
2021/04/10 04:38:41;;;;;;;1.65;1.50;;;6.90;99.90;;;;;;5055425;28;20160;-74
2021/04/10 04:41:06;;;;;;;3.90;1.90;;;6.90;99.90;;;;;;5045010;28;20169;-74
2021/04/10 04:43:32;;;;;;;3.40;2.05;;;6.80;99.90;;;;;;5031906;28;20074;-74
2021/04/10 04:45:57;;;;;;;3.65;2.03;;;6.80;99.90;;;;;;5030807;28;20078;-74
2021/04/10 04:48:23;;;;;;;3.13;1.80;;;7.00;99.90;;;;;;5030794;28;20086;-73
2021/04/10 04:50:48;;;;;;;5.35;1.80;;;6.90;99.90;;;;;;5032190;28;20173;-74
2021/04/10 04:53:14;;;;;;;7.38;2.30;;;6.90;99.90;;;;;;5030911;28;20098;-74
2021/04/10 04:55:40;;;;;;;3.55;2.45;;;6.90;99.90;;;;;;5030270;28;20084;-74
2021/04/10 04:58:06;;;;;;;3.45;2.05;;;6.80;99.90;;;;;;5031052;28;20105;-74
2021/04/10 05:00:31;;;;;;;3.63;2.03;;;6.80;99.90;;;;;;5030995;28;20536;-74
2021/04/10 05:02:57;;;;;;;5.05;2.38;;;7.00;99.90;;;;;;5031165;28;20074;-75
2021/04/10 05:05:23;;;;;;;4.28;2.55;;;7.10;99.90;;;;;;5039878;28;20565;-74
2021/04/10 05:07:49;;;;;;;5.78;2.42;;;7.00;99.90;;;;;;5040149;28;20170;-74
2021/04/10 05:10:14;;;;;;;3.65;1.98;;;7.00;99.90;;;;;;5035452;28;20081;-74
2021/04/10 05:12:40;;;;;;;6.85;1.80;;;7.00;99.90;;;;;;5028542;28;20097;-74
2021/04/10 05:15:06;;;;;;;3.47;1.70;;;7.10;99.90;;;;;;5036866;28;20078;-75
2021/04/10 05:17:32;;;;;;;4.15;2.08;;;7.10;99.90;;;;;;5036796;28;20080;-74
2021/04/10 05:19:58;;;;;;;6.05;2.00;;;7.10;99.90;;;;;;5029518;28;20078;-73
2021/04/10 05:22:24;;;;;;;3.30;2.05;;;7.20;99.90;;;;;;5031247;28;20090;-75
2021/04/10 05:24:49;;;;;;;2.50;1.90;;;7.20;99.90;;;;;;5030838;28;20078;-74
2021/04/10 05:27:15;;;;;;;4.88;1.80;;;7.30;99.90;;;;;;5029122;28;20517;-74
2021/04/10 05:29:40;;;;;;;4.22;1.80;;;7.30;99.90;;;;;;5030995;28;20124;-74
2021/04/10 05:32:06;;;;;;;4.95;2.50;;;7.30;99.90;;;;;;5030879;28;20086;-74
2021/04/10 05:34:32;;;;;;;4.68;2.00;;;7.30;99.90;;;;;;5029456;28;20102;-75
2021/04/10 05:36:57;;;;;;;6.80;1.90;;;7.40;99.90;;;;;;5029299;28;20081;-75
2021/04/10 05:39:23;;;;;;;3.53;1.77;;;7.50;99.90;;;;;;5047465;28;20183;-74
2021/04/10 05:41:48;;;;;;;3.80;2.13;;;7.50;99.90;;;;;;5032084;28;20101;-73
2021/04/10 05:44:14;;;;;;;3.13;1.92;;;7.60;99.90;;;;;;5037032;28;20590;-74
2021/04/10 05:46:39;;;;;;;4.47;2.05;;;7.70;99.90;;;;;;5049773;28;20069;-73
2021/04/10 05:49:05;;;;;;;3.53;1.85;;;7.80;99.90;;;;;;5056629;28;20485;-74
2021/04/10 05:51:30;;;;;;;5.57;2.42;;;7.90;99.90;;;;;;5048422;28;20086;-74
2021/04/10 05:53:56;;;;;;;3.58;1.80;;;8.00;99.90;;;;;;5037087;28;20101;-73
2021/04/10 05:56:22;;;;;;;4.22;1.88;;;8.10;99.90;;;;;;5030861;28;20066;-74
2021/04/10 05:58:48;;;;;;;4.47;1.90;;;8.20;99.90;;;;;;5012117;28;20164;-74
2021/04/10 06:01:13;;;;;;;3.17;1.80;;;8.30;99.90;;;;;;5029368;28;20147;-74
2021/04/10 06:03:40;;;;;;;2.70;1.90;;;8.50;99.90;;;;;;5029807;28;20081;-75
2021/04/10 06:06:06;;;;;;;3.50;2.17;;;8.60;99.90;;;;;;5040177;28;20084;-75
2021/04/10 06:08:32;;;;;;;3.85;2.08;;;9.00;97.00;;;;;;5030004;28;20077;-75
2021/04/10 06:10:58;;;;;;;4.15;1.92;;;9.40;95.00;;;;;;5028272;28;20137;-75
2021/04/10 06:13:24;;;;;;;6.30;2.92;;;9.60;93.70;;;;;;5030864;28;20086;-73
2021/04/10 06:15:50;;;;;;;4.85;1.48;;;9.90;92.80;;;;;;5034338;28;20080;-75
2021/04/10 06:18:16;;;;;;;2.95;1.55;;;10.10;92.60;;;;;;5028959;28;20528;-75
2021/04/10 06:20:41;;;;;;;5.60;2.00;;;10.30;91.60;;;;;;5032479;28;20151;-75
2021/04/10 06:23:07;;;;;;;2.50;1.30;;;10.20;92.80;;;;;;5031163;28;20078;-73
2021/04/10 06:25:32;;;;;;;4.07;1.20;;;10.30;91.30;;;;;;5029578;28;20509;-74
2021/04/10 06:28:01;;;;;;;4.28;1.83;;;10.30;91.60;;;;;;5029871;28;20081;-75
2021/04/10 06:30:27;;;;;;;3.28;1.73;;;10.10;92.10;;;;;;5011516;28;20123;-74
2021/04/10 06:32:52;;;;;;;2.55;1.60;;;10.30;91.60;;;;;;5028912;28;20575;-74
2021/04/10 06:35:18;;;;;;;4.47;1.55;;;10.50;91.80;;;;;;5029546;28;20156;-74
2021/04/10 06:37:43;;;;;;;3.00;1.65;;;10.50;92.90;;;;;;5047616;28;20082;-74
2021/04/10 06:40:09;;;;;;;2.65;1.63;;;10.50;92.50;;;;;;5029296;28;20160;-74
2021/04/10 06:42:36;;;;;;;2.45;1.70;;;10.60;93.50;;;;;;5029351;28;20108;-74
2021/04/10 06:45:02;;;;;;;4.22;1.48;;;10.80;93.30;;;;;;5028655;28;20560;-75
2021/04/10 06:47:30;;;;;;;4.03;1.40;;;10.80;92.60;;;;;;5030405;28;20073;-74
2021/04/10 06:49:55;;;;;;;5.28;1.80;;;11.00;93.30;;;;;;5030872;28;20203;-74
2021/04/10 06:52:21;;;;;;;5.75;1.90;;;11.10;90.80;;;;;;5030490;28;20102;-74
2021/04/10 06:54:56;;;;;;;2.85;1.60;;;11.00;92.30;;;;;;5029470;28;20085;-74
2021/04/10 06:57:22;;;;;;;;;;;11.00;93.30;;;;;;5027295;28;20073;-75
2021/04/10 07:00:06;;;;;;;3.00;1.20;;;11.00;92.80;;;;;;5029133;28;19962;-75
2021/04/10 07:02:32;;;;;;;2.17;1.30;;;10.90;92.30;;;;;;5033808;28;20093;-75
2021/04/10 07:04:58;;;;;;;2.47;1.30;;;11.30;92.40;;;;;;5026175;28;20077;-74
2021/04/10 07:07:24;;;;;;;4.32;1.33;;;11.20;93.10;;;;;;5018137;28;20070;-75
2021/04/10 07:09:50;;;;;;;4.88;1.58;;;11.30;92.70;;;;;;5036807;28;20136;-74
2021/04/10 07:12:16;;;;;;;4.80;1.15;;;11.20;91.70;;;;;;5040562;28;20105;-75
2021/04/10 07:14:42;;;;;;;2.88;1.50;;;11.20;93.00;;;;;;5043140;28;20129;-75
2021/04/10 07:17:07;;;;;;;3.85;1.67;;;11.60;92.40;;;;;;5031105;28;20077;-74
2021/04/10 07:19:33;;;;;;;2.30;1.30;;;11.70;92.00;;;;;;5033160;28;20153;-74
2021/04/10 07:22:13;;;;;;;3.15;1.45;;;11.60;92.40;;;;;;5029098;28;20126;-74
2021/04/10 07:24:50;;;;;;;3.80;1.70;;;11.70;92.20;;;;;;5033536;28;20495;-76
2021/04/10 07:27:21;;;;;;;3.75;1.60;;;11.60;92.90;;;;;;5030527;28;20084;-75
2021/04/10 07:29:48;;;;;;;5.80;1.50;;;11.70;91.80;;;;;;5049213;28;20081;-75
2021/04/10 07:32:33;;;;;;;5.65;1.45;;;12.10;91.90;;;;;;5040440;28;20460;-77
2021/04/10 07:35:20;;;;;;;5.18;1.95;;;12.30;93.90;;;;;;5043125;28;20624;-76
2021/04/10 07:37:51;;;;;;;7.28;1.50;;;12.30;92.70;;;;;;5051672;28;20095;-74
2021/04/10 07:40:26;;;;;;;1.33;1.00;;;12.60;91.40;;;;;;5048418;28;20560;-79
2021/04/10 07:42:52;;;;;;;3.22;1.40;;;12.70;90.10;;;;;;5033612;28;20125;-75
2021/04/10 07:45:35;;;;;;;3.13;1.40;;;12.60;92.00;;;;;;5034078;28;20505;-75
2021/04/10 07:48:06;;;;;;;3.60;1.45;;;12.70;90.00;;;;;;5037355;28;20092;-75
2021/04/10 07:50:34;;;;;;;5.90;1.60;;;12.80;90.50;;;;;;5044511;28;20152;-75
2021/04/10 07:53:19;;;;;;;3.95;1.63;;;12.80;90.70;;;;;;5033300;28;20607;-76
2021/04/10 07:55:45;;;;;;;6.88;1.63;;;12.90;91.10;;;;;;5033542;28;20451;-77
2021/04/10 07:58:30;;;;;;;5.55;1.98;;;13.00;90.80;;;;;;5051454;28;20072;-76
2021/04/10 08:01:10;;;;;;;5.68;1.58;;;12.90;91.40;;;;;;5040460;28;20085;-78
2021/04/10 08:03:41;;;;;;;4.50;2.20;;;13.00;91.60;;;;;;5019515;28;20528;-78
2021/04/10 08:06:06;;;;;;;3.70;1.40;;;12.90;91.40;;;;;;5022737;28;20101;-78
2021/04/10 08:08:33;;;;;;;3.65;1.30;;;13.00;91.60;;;;;;5041199;28;20135;-77
2021/04/10 08:11:05;;;;;;;3.97;1.45;;;13.20;92.10;;;;;;5043080;28;20382;-79
2021/04/10 08:13:31;;;;;;;5.40;1.60;;;13.40;91.90;;;;;;5045558;28;20539;-79
2021/04/10 08:16:17;;;;;;;3.97;1.25;;;13.20;90.10;;;;;;5032039;28;20070;-78
2021/04/10 08:18:49;;;;;;;3.00;1.35;;;13.10;90.10;;;;;;5021651;28;20074;-76
2021/04/10 08:21:20;;;;;;;1.83;0.85;;;13.30;90.70;;;;;;5041015;28;20136;-77
2021/04/10 08:23:46;;;;;;;7.45;3.00;;;13.20;89.90;;;;;;5034605;28;20597;-77
2021/04/10 08:26:13;;;;;;;4.25;1.45;;;13.20;90.50;;;;;;5033474;28;20101;-76
2021/04/10 08:28:38;;;;;;;5.93;1.25;;;13.10;89.60;;;;;;5069985;28;20151;-78
2021/04/10 08:31:05;;;;;;;4.63;1.60;;;13.30;90.50;;;;;;5035416;28;20181;-78
2021/04/10 08:33:32;;;;;;;2.88;1.50;;;13.40;90.40;;;;;;5043365;28;20089;-77
2021/04/10 08:36:00;;;;;;;3.00;1.35;;;13.60;88.70;;;;;;5049554;28;20083;-75
2021/04/10 08:38:28;;;;;;;2.88;1.33;;;13.60;89.40;;;;;;5049766;28;20156;-76
2021/04/10 08:40:56;;;;;;;2.65;1.05;;;13.40;87.70;;;;;;5045256;28;20092;-76
2021/04/10 08:43:27;;;;;;;4.07;1.20;;;13.60;92.30;;;;;;5045473;28;20072;-75
2021/04/10 08:45:54;;;;;;;3.13;1.42;;;13.80;91.30;;;;;;5042162;28;20104;-76
2021/04/10 08:48:21;;;;;;;2.63;1.35;;;13.80;90.80;;;;;;5037282;28;20077;-76
2021/04/10 08:50:52;;;;;;;1.83;1.23;;;13.80;89.70;;;;;;5019376;28;22175;-74
2021/04/10 08:53:22;;;;;;;3.53;1.48;;;13.80;90.10;;;;;;5051436;28;20286;-74
2021/04/10 08:55:50;;;;;;;3.58;1.65;;;13.80;91.40;;;;;;5045418;28;20448;-75
2021/04/10 08:58:31;;;;;;;5.45;1.70;;;13.70;90.50;;;;;;5063290;28;20122;-75
2021/04/10 09:01:00;;;;;;;4.68;1.92;;;13.80;91.10;;;;;;5047143;28;20441;-76
2021/04/10 09:03:50;;;;;;;2.45;1.40;;;13.80;91.10;;;;;;5044888;28;20446;-76
2021/04/10 09:06:36;;;;;;;3.42;1.50;;;13.80;90.70;;;;;;5041393;28;20096;-75
2021/04/10 09:09:10;;;;;;;3.67;0.90;;;14.00;88.30;;;;;;5046279;28;20101;-75
2021/04/10 09:11:36;;;;;;;;;;;13.80;85.80;;;;;;5047462;28;20462;-75
2021/04/10 09:14:02;;;;;;;7.97;2.88;;;13.80;89.10;;;;;;5032001;28;19977;-76
2021/04/10 09:16:46;;;;;;;6.10;1.75;;;13.90;90.20;;;;;;5050196;28;20101;-76
2021/04/10 09:19:29;;;;;;;2.88;1.65;;;14.10;86.60;;;;;;5038648;28;20555;-76
2021/04/10 09:22:00;;;;;;;6.78;1.65;;;14.00;85.00;;;;;;5038699;28;21951;-74
2021/04/10 09:24:42;;;;;;;3.67;1.60;;;14.00;87.60;;;;;;5031981;28;20085;-74
2021/04/10 09:27:25;;;;;;;3.00;1.27;;;14.10;85.60;;;;;;5040400;28;20069;-75
2021/04/10 09:29:55;;;;;;;2.63;1.25;;;14.10;85.20;;;;;;5050868;28;20104;-74
2021/04/10 09:32:44;;;;;;;3.65;1.40;;;14.10;89.50;;;;;;5038860;28;20074;-74
2021/04/10 09:35:15;;;;;;;3.25;1.48;;;14.10;88.10;;;;;;5045968;28;20557;-74
2021/04/10 09:37:40;;;;;;;1.77;1.20;;;14.10;81.60;;;;;;5047654;28;20211;-74
2021/04/10 09:40:09;;;;;;;1.95;1.20;;;14.10;80.30;;;;;;5034095;28;20161;-74
2021/04/10 09:42:55;;;;;;;2.88;1.40;;;14.20;83.30;;;;;;5034613;28;20093;-74
2021/04/10 09:45:23;;;;;;;5.32;1.98;;;14.10;81.20;;;;;;5045122;28;20668;-74
2021/04/10 09:47:55;;;;;;;2.78;2.40;;;14.40;83.50;;;;;;5045621;28;20157;-77
2021/04/10 09:50:21;;;;;;;3.53;1.70;;;14.40;87.50;;;;;;5036482;28;20065;-74
2021/04/10 09:52:54;;;;;;;8.23;1.30;;;14.70;85.00;;;;;;5036191;28;20463;-74
2021/04/10 09:55:21;;;;;;;4.20;1.13;;;14.70;86.30;;;;;;5046259;28;20078;-74
2021/04/10 09:58:01;;;;;;;4.75;1.58;;;14.70;86.00;;;;;;5040661;28;20073;-74
2021/04/10 10:00:28;;;;;;;4.45;1.30;;;14.90;82.60;;;;;;5039267;28;20073;-73
2021/04/10 10:02:54;;;;;;;3.13;1.45;;;14.90;83.10;;;;;;5049496;28;20206;-74
2021/04/10 10:05:21;;;;;;;1.98;1.58;;;14.70;84.30;;;;;;5032989;28;20078;-74
2021/04/10 10:07:47;;;;;;;7.53;2.17;;;14.90;84.40;;;;;;5037513;28;20097;-73
2021/04/10 10:10:14;;;;;;;4.22;1.33;;;14.90;81.60;;;;;;5040312;28;20086;-74
2021/04/10 10:12:39;;;;;;;3.10;2.10;;;15.10;85.20;;;;;;5048447;28;20500;-74
2021/04/10 10:15:23;;;;;;;6.55;2.95;;;15.00;78.50;;;;;;5046178;28;20174;-73
2021/04/10 10:17:48;;;;;;;2.78;1.40;;;15.00;85.80;;;;;;5031894;28;20077;-74
2021/04/10 10:20:15;;;;;;;3.53;1.95;;;15.00;82.30;;;;;;5046108;28;20161;-74
2021/04/10 10:22:42;;;;;;;8.18;1.58;;;15.30;88.30;;;;;;5044339;28;20499;-75
2021/04/10 10:25:09;;;;;;;2.80;1.33;;;15.10;85.40;;;;;;5029165;28;20074;-76
2021/04/10 10:27:40;;;;;;;3.67;1.70;;;15.10;81.70;;;;;;5047760;28;20184;-76
2021/04/10 10:30:17;;;;;;;3.50;1.85;;;14.90;80.80;;;;;;5040476;28;20452;-75
2021/04/10 10:32:47;;;;;;;3.83;1.70;;;14.90;82.40;;;;;;5032914;28;20093;-74
2021/04/10 10:35:14;;;;;;;4.20;2.17;;;14.70;78.10;;;;;;5038050;28;20124;-75
2021/04/10 10:37:44;;;;;;;4.95;2.33;;;14.70;77.90;;;;;;5035998;28;20078;-75
2021/04/10 10:40:20;;;;;;;2.95;2.08;;;14.70;81.70;;;;;;5048730;28;20070;-76
2021/04/10 10:43:00;;;;;;;3.22;2.05;;;14.90;85.30;;;;;;5035153;28;20587;-75
2021/04/10 10:45:44;;;;;;;3.28;1.60;;;15.20;88.40;;;;;;5049837;28;20073;-78
2021/04/10 10:48:34;;;;;;;2.78;1.73;;;15.20;88.40;;;;;;5027625;28;20463;-76
2021/04/10 10:51:00;;;;;;;4.55;1.58;;;15.30;86.50;;;;;;5040541;28;20098;-79
2021/04/10 10:53:30;;;;;;;4.45;1.98;;;15.00;84.80;;;;;;5040934;28;20094;-77
2021/04/10 10:55:56;;;;;;;2.95;2.03;;;15.00;83.60;;;;;;5030618;28;20543;-77
2021/04/10 10:58:23;;;;;;;3.47;1.70;;;15.00;80.40;;;;;;5037965;28;20070;-77
2021/04/10 11:00:49;;;;;;;6.00;2.28;;;15.30;84.70;;;;;;5012322;28;20612;-77
2021/04/10 11:03:20;;;;;;;4.22;1.65;;;15.50;82.00;;;;;;5030815;28;20447;-77
2021/04/10 11:05:48;;;;;;;3.83;1.75;;;15.30;80.10;;;;;;5036273;28;20149;-76
2021/04/10 11:08:15;;;;;;;5.78;2.50;;;15.20;77.60;;;;;;5036826;28;20536;-76
2021/04/10 11:10:41;;;;;;;5.13;2.38;;;15.30;78.90;;;;;;5036549;28;20088;-76
2021/04/10 11:13:09;;;;;;;5.68;2.03;;;15.20;80.00;;;;;;5036148;28;20093;-79
2021/04/10 11:15:35;;;;;;;4.28;2.13;;;15.20;84.90;;;;;;5028226;28;20196;-80
2021/04/10 11:18:02;;;;;;;5.70;2.38;;;15.40;86.00;;;;;;5045546;28;20082;-78
2021/04/10 11:20:32;;;;;;;4.28;2.28;;;15.20;81.40;;;;;;5051926;28;20089;-77
2021/04/10 11:23:03;;;;;;;4.35;2.00;;;15.20;83.80;;;;;;5048813;28;20540;-78
2021/04/10 11:25:28;;;;;;;5.20;2.03;;;15.30;86.50;;;;;;5038726;28;20081;-78
2021/04/10 11:27:54;;;;;;;4.95;2.55;;;15.30;84.00;;;;;;5021992;28;20069;-80
2021/04/10 11:30:19;;;;;;;5.03;1.90;;;15.20;80.20;;;;;;5016557;28;20085;-78
2021/04/10 11:32:45;;;;;;;6.82;2.22;;;15.20;84.20;;;;;;5042370;28;20101;-78
2021/04/10 11:35:20;;;;;;;4.90;3.28;;;15.20;82.90;;;;;;5030320;28;20080;-75
2021/04/10 11:37:53;;;;;;;;;;;15.10;80.80;;;;;;5038622;28;20072;-77
2021/04/10 11:40:22;;;;;;;5.35;2.50;;;15.20;80.20;;;;;;5028979;28;19988;-77
2021/04/10 11:42:53;;;;;;;3.70;2.03;;;15.00;80.10;;;;;;5028762;28;20074;-78
2021/04/10 11:45:24;;;;;;;3.75;2.20;;;15.20;80.80;;;;;;5033163;28;20076;-77
2021/04/10 11:48:23;;;;;;;7.88;2.25;;;15.10;80.20;;;;;;5046615;28;20078;-77
2021/04/10 11:50:56;;;;;;;4.32;2.38;;;15.10;75.70;;;;;;5036697;28;20128;-77
2021/04/10 11:53:39;;;;;;;2.80;2.08;;;15.10;78.40;;;;;;5030378;28;20086;-77
2021/04/10 11:56:25;;;;;;;3.25;2.05;;;15.10;77.30;;;;;;5031641;28;20078;-77
2021/04/10 11:59:05;;;;;;;6.32;2.58;;;15.30;82.70;;;;;;5020463;28;20081;-76
2021/04/10 12:01:32;;;;;;;4.93;2.10;;;15.30;78.50;;;;;;5031025;28;20185;-78
2021/04/10 12:04:00;;;;;;;3.25;2.08;;;15.20;76.20;;;;;;5028958;28;20164;-77
2021/04/10 12:06:32;;;;;;;4.13;2.28;;;15.30;80.80;;;;;;5044986;28;20204;-76
2021/04/10 12:09:06;;;;;;;4.70;2.47;;;15.30;77.70;;;;;;5037399;28;20091;-76
2021/04/10 12:11:35;;;;;;;5.30;2.03;;;15.20;74.00;;;;;;5025133;28;20111;-76
2021/04/10 12:14:06;;;;;;;5.40;2.20;;;15.40;82.50;;;;;;5042921;28;20114;-77
2021/04/10 12:16:33;;;;;;;6.43;2.45;;;15.30;73.80;;;;;;5044550;28;20116;-76
2021/04/10 12:18:59;;;;;;;4.47;1.70;;;15.30;78.30;;;;;;5037024;28;20093;-77
2021/04/10 12:21:25;;;;;;;5.82;2.40;;;15.40;79.90;;;;;;5047043;28;20120;-76
2021/04/10 12:23:50;;;;;;;5.85;2.03;;;15.50;78.50;;;;;;5046533;28;20172;-76
2021/04/10 12:26:16;;;;;;;2.92;2.33;;;15.60;79.70;;;;;;5034600;28;20081;-76
2021/04/10 12:28:41;;;;;;;4.80;2.72;;;15.40;79.20;;;;;;5042332;28;20077;-77
2021/04/10 12:31:10;;;;;;;8.10;3.00;;;15.40;78.40;;;;;;5033051;28;20194;-76
2021/04/10 12:33:40;;;;;;;4.28;2.35;;;15.20;77.10;;;;;;5046157;28;20090;-77
2021/04/10 12:36:07;;;;;;;5.00;2.78;;;15.20;77.90;;;;;;5047258;28;20073;-77
2021/04/10 12:38:32;;;;;;;4.47;2.15;;;15.10;80.70;;;;;;5016571;28;20548;-77
2021/04/10 12:40:58;;;;;;;5.32;2.80;;;15.20;78.90;;;;;;5015237;28;20093;-77
2021/04/10 12:43:24;;;;;;;4.38;2.33;;;15.20;78.20;;;;;;5043403;28;20074;-77
2021/04/10 12:45:49;;;;;;;3.03;2.17;;;15.20;77.80;;;;;;5018580;28;20074;-77
2021/04/10 12:48:15;;;;;;;4.78;2.47;;;15.20;79.90;;;;;;5038321;28;20540;-77
2021/04/10 12:50:41;;;;;;;7.45;2.83;;;15.40;80.00;;;;;;5045925;28;20550;-76
2021/04/10 12:53:07;;;;;;;2.90;2.17;;;15.50;82.70;;;;;;5039757;28;20097;-77
2021/04/10 12:55:33;;;;;;;4.50;2.45;;;15.70;86.70;;;;;;5042957;28;20112;-76
2021/04/10 12:57:59;;;;;;;3.92;2.42;;;15.70;83.80;;;;;;5056157;28;20092;-76
2021/04/10 13:00:24;;;;;;;5.72;2.75;;;15.90;79.50;;;;;;5023298;28;20070;-77
2021/04/10 13:02:50;;;;;;;4.40;3.05;;;15.80;83.60;;;;;;5037035;28;20549;-77